logo
Rechercher aéroport 
image banner adimage banner adimage banner ad
image banner ad

3CA3 - Behring Ranch

Situé à Colusa, United States

ICAO - 3CA3, IATA -

Données fournies par Airmate  

Information générale

Coordonnées: N39°20'29" W121°57'3"
Élévation : 62 feet MSL.
 
Voir autres Aéroports à California

Données opérationnelles

Special qualification required
Heure actuelle UTC:
Heure actuelle locale:
Météo à : KOVE - Oroville Muni ( 33 km )
METAR: KOVE 261453Z AUTO 11003KT 10SM CLR 21/14 A2996 RMK AO2 SLP146 T02060139 53010
Voir NOTAMs / SUP AIP / TFR affectant cet aéroport [VIEW]
Fréquences de communication: [VIEW]

Pistes:

Coordonnées de l'aéroport

Adresse: Colusa United States

Vue satellite de 3CA3